Tropical Cyclones
[Index]
Main Index Home Page Stock Weather Photos Extreme Storms Discussion Storm News and Storm Chasing Reports Tropical Cyclones / Hurricanes / Typhoons Weather Data and Links Wild Fires / Bushfires Weather Observation Techniques Weather Picture Catalogue Tornado Pictures and Reports Stock Video Footage and DVDs for sale
Season 1982-1983 Tropical Cyclone REWA Track Map
Season 1982-1983 Summaries: [BoM-AU] [JTWC-AU] [JTWC-SIO] [JTWC-SPAC] [JTWC-SH]
<<- Previous TC | JTWC 1982-1983 Season | Next TC ->>

click for intensity scale information  Lat/long Grid: Show Hide

 Date Labels: Show Hide

Joint Typhoon Warning Centre Cyclone Data

Name: REWA

07 Mar 1983 00:00 UTC to 16 Mar 1983 00:00 UTC

    date/time    lat    long     hPa   cat  kts
1983-03-07 00   11.3   147.4W                 30          
1983-03-07 06   11.5   147.6W                 31          
1983-03-07 12   11.8   147.8W                 35          
1983-03-07 18   12.0   147.9W           1     40          
1983-03-08 00   12.4   148.1W           1     45          
1983-03-08 06   12.7   148.3W           1     50          
1983-03-08 12   13.2   148.5W           2     55          
1983-03-08 18   13.5   148.7W           2     62          
1983-03-09 00   14.0   148.9W           2     70          
1983-03-09 06   14.3   149.0W           3     75          
1983-03-09 12   14.6   149.2W           3     80          
1983-03-09 18   14.8   149.5W           3     85          
1983-03-10 00   15.1   149.9W           3     90          
1983-03-10 06   15.1   150.1W           3     90          
1983-03-10 12   15.2   150.4W           3     90          
1983-03-10 18   15.1   150.7W           3     90          
1983-03-11 00   15.2   151.0W           3     90          
1983-03-11 06   15.2   151.3W           3     87          
1983-03-11 12   15.3   151.6W           3     85          
1983-03-11 18   15.4   151.9W           3     85          
1983-03-12 00   15.6   151.8W           3     85          
1983-03-12 06   15.8   151.1W           3     82          
1983-03-12 12   16.2   150.4W           3     80          
1983-03-12 18   16.3   149.6W           3     77          
1983-03-13 00   16.6   148.9W           3     75          
1983-03-13 06   16.9   148.1W           2     70          
1983-03-13 12   17.4   147.3W           2     65          
1983-03-13 18   17.8   145.9W           2     62          
1983-03-14 00   18.4   144.5W           2     60          
1983-03-14 06   19.2   143.4W           2     57          
1983-03-14 12   20.4   142.5W           2     55          
1983-03-14 18   21.6   141.5W           1     52          
1983-03-15 00   22.9   140.6W           1     50          
1983-03-15 06   24.2   139.1W           1     45          
1983-03-15 12   25.5   137.3W           1     40          
1983-03-15 18   26.6   135.4W                 35          
1983-03-16 00   27.5   133.5W                 30          
Winds are 1-min average.

Tropical cyclone tracks developed by Michael Bath using data from the Joint Typhoon Warning Centre Best Tracks and Google Maps.


[Australian Severe Weather index] [Copyright Notice] [Email Contacts] [Search This Site] [Privacy Policy]
Document: tropical_cyclone_rewa.htm Updated: 18 September 2016